createdAt,value
2022-09-05T00:02:04.421Z,19.26
2022-09-05T00:05:02.615Z,19.20
2022-09-05T00:07:57.943Z,19.19
2022-09-05T00:10:25.659Z,19.14
2022-09-05T00:13:06.942Z,19.05
2022-09-05T00:15:40.978Z,19.09
2022-09-05T00:21:38.090Z,19.00
2022-09-05T00:24:37.159Z,18.95
2022-09-05T00:24:50.168Z,18.89
2022-09-05T00:27:35.503Z,18.96
2022-09-05T00:31:51.720Z,19.01
2022-09-05T00:33:38.175Z,18.97
2022-09-05T00:36:27.972Z,18.88
2022-09-05T00:39:03.046Z,18.81
2022-09-05T00:41:34.221Z,18.87
2022-09-05T00:44:02.945Z,18.75
2022-09-05T00:46:33.997Z,18.64
2022-09-05T00:49:24.235Z,18.52
2022-09-05T00:51:57.875Z,18.49
2022-09-05T00:54:26.797Z,18.65
2022-09-05T00:57:35.978Z,18.90
2022-09-05T01:00:37.217Z,18.94
2022-09-05T01:03:21.530Z,18.78
2022-09-05T01:06:26.119Z,18.60
2022-09-05T01:09:33.814Z,18.44
2022-09-05T01:12:03.541Z,18.37
2022-09-05T01:14:48.650Z,18.23
2022-09-05T01:17:50.638Z,18.22
2022-09-05T01:20:38.435Z,18.21
2022-09-05T01:23:44.680Z,18.18
2022-09-05T01:26:11.585Z,18.21
2022-09-05T01:29:18.544Z,18.48
2022-09-05T01:31:36.787Z,18.38
2022-09-05T01:34:11.416Z,18.19
2022-09-05T01:36:49.238Z,18.08
2022-09-05T01:40:11.130Z,17.93
2022-09-05T01:42:49.386Z,17.95
2022-09-05T01:45:22.190Z,17.87
2022-09-05T01:48:00.728Z,17.82
2022-09-05T01:50:54.656Z,17.76
2022-09-05T01:53:27.407Z,17.80
2022-09-05T01:56:15.583Z,17.74
2022-09-05T01:59:01.400Z,17.66
2022-09-05T02:01:40.596Z,17.69
2022-09-05T02:04:57.659Z,17.62
2022-09-05T02:07:51.265Z,17.73
2022-09-05T02:10:39.876Z,17.76
2022-09-05T02:13:26.915Z,17.71
2022-09-05T02:16:15.955Z,17.77
2022-09-05T02:18:59.087Z,17.84
2022-09-05T02:21:31.699Z,17.89
2022-09-05T02:24:35.060Z,17.90
2022-09-05T02:27:02.170Z,17.84
2022-09-05T02:30:06.163Z,17.82
2022-09-05T02:32:54.191Z,17.73
2022-09-05T02:35:31.627Z,17.68
2022-09-05T02:39:18.609Z,17.65
2022-09-05T02:45:17.257Z,17.60
2022-09-05T02:45:18.443Z,17.69
2022-09-05T02:47:44.344Z,17.53
2022-09-05T02:57:23.111Z,17.42
2022-09-05T02:57:33.653Z,17.34
2022-09-05T02:57:34.206Z,17.32
2022-09-05T02:59:35.784Z,17.40
2022-09-05T03:02:31.592Z,17.37
2022-09-05T03:05:09.408Z,17.34
2022-09-05T03:08:06.280Z,17.26
2022-09-05T03:10:54.633Z,17.24
2022-09-05T03:13:33.867Z,17.24
2022-09-05T03:16:46.918Z,17.21
2022-09-05T03:19:29.546Z,17.19
2022-09-05T03:22:14.117Z,17.19
2022-09-05T03:25:10.053Z,17.15
2022-09-05T03:28:14.573Z,17.17
2022-09-05T03:31:22.422Z,17.23
2022-09-05T03:34:08.309Z,17.13
2022-09-05T03:37:12.846Z,17.15
2022-09-05T03:39:58.626Z,17.13
2022-09-05T03:43:34.477Z,17.18
2022-09-05T03:46:10.637Z,17.12
2022-09-05T03:51:51.486Z,17.12
2022-09-05T03:57:12.924Z,17.28
2022-09-05T03:57:15.450Z,17.32
2022-09-05T03:59:21.555Z,17.22
2022-09-05T04:06:58.370Z,17.13
2022-09-05T04:08:19.422Z,17.06
2022-09-05T04:08:38.555Z,17.29
2022-09-05T04:11:18.989Z,17.36
2022-09-05T04:13:55.944Z,17.30
2022-09-05T04:16:34.022Z,17.38
2022-09-05T04:19:10.456Z,17.33
2022-09-05T04:21:46.760Z,17.19
2022-09-05T04:24:33.611Z,17.22
2022-09-05T04:27:27.743Z,17.20
2022-09-05T04:30:00.498Z,17.27
2022-09-05T04:32:33.166Z,17.38
2022-09-05T04:35:07.374Z,17.35
2022-09-05T04:37:48.784Z,17.23
2022-09-05T04:40:36.660Z,17.34
2022-09-05T04:43:05.885Z,17.46
2022-09-05T04:45:39.979Z,17.67
2022-09-05T04:48:12.970Z,17.89
2022-09-05T04:51:06.832Z,18.02
2022-09-05T04:53:53.750Z,18.23
2022-09-05T04:56:26.816Z,18.83
2022-09-05T05:02:12.776Z,18.91
2022-09-05T05:06:00.768Z,19.17
2022-09-05T05:06:15.114Z,19.47
2022-09-05T05:08:02.483Z,19.78
2022-09-05T05:16:06.383Z,19.13
2022-09-05T05:18:07.632Z,19.57
2022-09-05T05:18:11.316Z,19.31
2022-09-05T05:20:40.352Z,19.58
2022-09-05T05:23:29.278Z,19.61
2022-09-05T05:26:00.684Z,19.46
2022-09-05T05:28:54.755Z,19.24
2022-09-05T05:31:29.888Z,19.01
2022-09-05T05:34:02.337Z,18.73
2022-09-05T05:36:36.601Z,18.80
2022-09-05T05:39:13.679Z,19.19
2022-09-05T05:41:46.652Z,19.32
2022-09-05T05:44:16.945Z,19.34
2022-09-05T05:47:28.321Z,19.28
2022-09-05T05:50:01.354Z,19.52
2022-09-05T05:52:43.568Z,19.63
2022-09-05T05:55:52.424Z,19.56
2022-09-05T05:58:38.785Z,19.82
2022-09-05T06:01:37.852Z,20.06
2022-09-05T06:04:27.606Z,20.22
2022-09-05T06:07:17.702Z,20.34
2022-09-05T06:14:48.174Z,20.17
2022-09-05T06:14:58.563Z,20.18
2022-09-05T06:16:29.467Z,20.47
2022-09-05T06:19:24.312Z,20.50
2022-09-05T06:22:21.054Z,20.84
2022-09-05T06:25:17.300Z,20.79
2022-09-05T06:28:19.187Z,21.02
2022-09-05T06:31:30.412Z,20.89
2022-09-05T06:34:35.254Z,21.21
2022-09-05T06:37:10.717Z,20.95
2022-09-05T06:40:08.350Z,21.01
2022-09-05T06:42:57.939Z,21.22
2022-09-05T06:45:44.055Z,21.45
2022-09-05T06:48:36.580Z,21.63
2022-09-05T06:51:32.518Z,21.69
2022-09-05T06:54:21.568Z,21.54
2022-09-05T06:57:27.036Z,21.63
2022-09-05T07:00:39.137Z,21.86
2022-09-05T07:03:46.531Z,22.08
2022-09-05T07:06:50.769Z,22.15
2022-09-05T07:09:47.020Z,22.31
2022-09-05T07:12:30.026Z,22.31
2022-09-05T07:15:28.998Z,22.57
2022-09-05T07:18:37.996Z,22.62
2022-09-05T07:21:16.790Z,22.55
2022-09-05T07:24:09.364Z,22.67
2022-09-05T07:26:54.152Z,22.63
2022-09-05T07:29:41.606Z,22.58
2022-09-05T07:32:31.586Z,22.69
2022-09-05T07:35:01.934Z,22.74
2022-09-05T07:37:38.518Z,22.82
2022-09-05T07:40:25.009Z,22.50
2022-09-05T07:43:08.748Z,22.52
2022-09-05T07:45:55.778Z,22.48
2022-09-05T07:48:34.923Z,22.79
2022-09-05T07:56:55.459Z,23.08
2022-09-05T07:57:03.161Z,22.34
2022-09-05T07:57:25.391Z,22.28
2022-09-05T07:59:47.859Z,22.67
2022-09-05T08:02:15.239Z,22.86
2022-09-05T08:04:42.499Z,22.47
2022-09-05T08:07:48.079Z,22.33
2022-09-05T08:10:31.042Z,22.81
2022-09-05T08:13:23.553Z,23.12
2022-09-05T08:16:10.701Z,23.11
2022-09-05T08:19:04.296Z,23.33
2022-09-05T08:21:42.235Z,23.34
2022-09-05T08:24:27.059Z,23.32
2022-09-05T08:27:16.962Z,23.33
2022-09-05T08:29:46.552Z,23.35
2022-09-05T08:32:16.241Z,23.50
2022-09-05T08:35:11.108Z,23.61
2022-09-05T08:37:38.608Z,23.84
2022-09-05T08:40:21.287Z,23.90
2022-09-05T08:44:22.361Z,23.86
2022-09-05T08:46:46.295Z,24.08
2022-09-05T08:49:45.537Z,24.22
2022-09-05T08:52:44.544Z,24.19
2022-09-05T08:55:26.814Z,24.39
2022-09-05T08:58:09.205Z,24.30
2022-09-05T09:00:55.551Z,24.40
2022-09-05T09:03:30.516Z,24.60
2022-09-05T09:06:13.931Z,24.46
2022-09-05T09:09:07.434Z,24.58
2022-09-05T09:12:02.447Z,24.53
2022-09-05T09:14:57.855Z,24.44
2022-09-05T09:17:35.474Z,24.45
2022-09-05T09:20:55.885Z,24.65
2022-09-05T09:23:34.812Z,24.79
2022-09-05T09:26:24.610Z,24.65
2022-09-05T09:29:07.193Z,24.87
2022-09-05T09:31:48.546Z,24.99
2022-09-05T09:34:28.869Z,25.14
2022-09-05T09:37:44.059Z,25.37
2022-09-05T09:40:24.567Z,25.31
2022-09-05T09:43:10.761Z,25.28
2022-09-05T09:46:09.960Z,25.37
2022-09-05T09:48:40.123Z,25.50
2022-09-05T09:51:13.075Z,25.90
2022-09-05T09:54:07.839Z,25.89
2022-09-05T09:57:12.711Z,25.94
2022-09-05T09:59:54.230Z,25.71
2022-09-05T10:04:30.975Z,26.02
2022-09-05T10:10:34.237Z,26.47
2022-09-05T10:10:47.490Z,27.03
2022-09-05T10:11:59.866Z,27.29
2022-09-05T10:14:51.060Z,27.41
2022-09-05T10:17:43.320Z,27.40
2022-09-05T10:20:38.384Z,26.44
2022-09-05T10:23:13.691Z,27.03
2022-09-05T10:25:46.693Z,27.58
2022-09-05T10:28:47.046Z,27.57
2022-09-05T10:34:18.132Z,27.35
2022-09-05T10:35:23.383Z,27.45
2022-09-05T10:37:13.905Z,27.61
2022-09-05T10:39:50.295Z,27.85
2022-09-05T10:42:31.860Z,27.62
2022-09-05T10:45:06.150Z,27.62
2022-09-05T10:47:53.667Z,27.94
2022-09-05T10:50:30.461Z,28.25
2022-09-05T10:53:07.733Z,28.26
2022-09-05T10:55:53.818Z,27.95
2022-09-05T10:58:35.268Z,28.63
2022-09-05T11:02:22.382Z,29.00
2022-09-05T11:04:20.128Z,29.18
2022-09-05T11:06:54.883Z,29.28
2022-09-05T11:09:30.203Z,29.62
2022-09-05T11:12:05.702Z,29.74
2022-09-05T11:14:51.516Z,29.42
2022-09-05T11:17:42.177Z,28.86
2022-09-05T11:20:34.858Z,28.81
2022-09-05T11:23:11.020Z,28.68
2022-09-05T11:25:41.190Z,28.80
2022-09-05T11:28:19.128Z,28.65
2022-09-05T11:30:53.549Z,28.20
2022-09-05T11:36:06.931Z,28.37
2022-09-05T11:40:04.228Z,28.27
2022-09-05T11:40:09.523Z,28.18
2022-09-05T11:42:32.812Z,28.25
2022-09-05T11:45:21.686Z,27.83
2022-09-05T11:48:06.414Z,28.13
2022-09-05T11:50:52.187Z,28.52
2022-09-05T11:53:40.477Z,27.88
2022-09-05T11:56:30.608Z,28.06
2022-09-05T11:59:04.963Z,27.91
2022-09-05T12:01:53.645Z,27.73
2022-09-05T12:04:45.174Z,27.77
2022-09-05T12:07:57.585Z,28.52
2022-09-05T12:10:46.513Z,28.23
2022-09-05T12:13:26.381Z,28.52
2022-09-05T12:16:07.479Z,28.77
2022-09-05T12:18:45.685Z,29.29
2022-09-05T12:21:29.047Z,29.66
2022-09-05T12:24:57.328Z,30.12
2022-09-05T12:27:46.229Z,30.13
2022-09-05T12:30:22.166Z,30.52
2022-09-05T12:36:02.433Z,29.03
2022-09-05T12:40:04.674Z,29.53
2022-09-05T12:40:59.493Z,29.50
2022-09-05T12:42:27.906Z,29.47
2022-09-05T12:45:43.645Z,28.99
2022-09-05T12:48:38.995Z,28.11
2022-09-05T12:51:45.378Z,28.71
2022-09-05T12:54:33.997Z,29.60
2022-09-05T13:00:46.594Z,29.55
2022-09-05T13:03:04.682Z,29.60
2022-09-05T13:03:28.694Z,30.02
2022-09-05T13:06:21.468Z,29.90
2022-09-05T13:08:59.519Z,29.56
2022-09-05T13:14:47.860Z,29.25
2022-09-05T13:14:55.028Z,29.34
2022-09-05T13:17:15.851Z,29.29
2022-09-05T13:19:51.916Z,29.36
2022-09-05T13:22:24.536Z,29.38
2022-09-05T13:25:08.458Z,29.40
2022-09-05T13:27:42.503Z,28.96
2022-09-05T13:31:36.211Z,29.21
2022-09-05T13:38:02.866Z,29.00
2022-09-05T13:38:07.595Z,28.77
2022-09-05T13:39:01.395Z,28.86
2022-09-05T13:41:31.735Z,28.46
2022-09-05T13:44:26.854Z,28.13
2022-09-05T13:47:29.838Z,28.50
2022-09-05T13:50:21.078Z,28.19
2022-09-05T13:52:56.585Z,28.21
2022-09-05T13:55:35.312Z,28.31
2022-09-05T13:58:33.081Z,28.29
2022-09-05T14:01:34.206Z,28.29
2022-09-05T14:07:46.643Z,28.55
2022-09-05T14:10:33.261Z,28.75
2022-09-05T14:13:16.339Z,29.12
2022-09-05T14:15:52.681Z,29.10
2022-09-05T14:18:24.315Z,28.92
2022-09-05T14:21:16.615Z,29.13
2022-09-05T14:24:14.577Z,28.99
2022-09-05T14:26:45.452Z,28.86
2022-09-05T14:29:49.424Z,28.53
2022-09-05T14:37:55.238Z,29.13
2022-09-05T14:37:55.739Z,29.14
2022-09-05T14:38:46.068Z,28.73
2022-09-05T14:41:30.960Z,28.67
2022-09-05T14:44:18.309Z,28.56
2022-09-05T14:46:54.394Z,28.61
2022-09-05T14:49:46.439Z,28.76
2022-09-05T14:52:35.578Z,28.60
2022-09-05T15:02:42.923Z,28.31
2022-09-05T15:02:52.383Z,28.61
2022-09-05T15:06:39.296Z,28.38
2022-09-05T15:12:07.703Z,28.45
2022-09-05T15:12:33.079Z,28.42
2022-09-05T15:15:07.132Z,28.49
2022-09-05T15:17:35.122Z,28.48
2022-09-05T15:20:07.462Z,28.07
2022-09-05T15:22:43.185Z,27.94
2022-09-05T15:25:21.623Z,27.79
2022-09-05T15:27:49.708Z,27.67
2022-09-05T15:30:31.883Z,27.89
2022-09-05T15:33:25.853Z,27.89
2022-09-05T15:35:53.915Z,27.93
2022-09-05T15:38:55.156Z,27.62
2022-09-05T15:41:23.487Z,27.74
2022-09-05T15:44:09.384Z,27.66
2022-09-05T15:46:59.445Z,27.65
2022-09-05T15:49:32.237Z,27.30
2022-09-05T15:52:03.945Z,27.48
2022-09-05T15:54:49.524Z,27.26
2022-09-05T15:57:22.974Z,27.09
2022-09-05T15:59:57.563Z,27.36
2022-09-05T16:02:29.584Z,27.38
2022-09-05T16:10:31.563Z,27.13
2022-09-05T16:10:45.945Z,27.08
2022-09-05T16:14:15.870Z,26.85
2022-09-05T16:23:18.714Z,26.89
2022-09-05T16:23:28.096Z,27.01
2022-09-05T16:23:28.692Z,27.43
2022-09-05T16:25:34.760Z,28.30
2022-09-05T16:28:05.659Z,28.46
2022-09-05T16:30:35.624Z,29.08
2022-09-05T16:33:07.959Z,29.57
2022-09-05T16:35:44.810Z,29.81
2022-09-05T16:38:27.313Z,29.04
2022-09-05T16:41:31.820Z,28.82
2022-09-05T16:44:14.095Z,28.10
2022-09-05T16:46:53.491Z,27.08
2022-09-05T16:49:41.969Z,26.79
2022-09-05T16:52:17.160Z,26.77
2022-09-05T16:55:16.349Z,26.94
2022-09-05T16:58:25.095Z,26.85
2022-09-05T17:01:10.035Z,26.77
2022-09-05T17:03:46.438Z,26.54
2022-09-05T17:06:58.306Z,26.08
2022-09-05T17:09:37.059Z,25.98
2022-09-05T17:12:18.052Z,25.85
2022-09-05T17:14:54.163Z,25.78
2022-09-05T17:18:18.338Z,25.50
2022-09-05T17:20:21.023Z,25.25
2022-09-05T17:27:31.818Z,25.15
2022-09-05T17:29:29.829Z,25.07
2022-09-05T17:29:31.266Z,25.03
2022-09-05T17:31:58.791Z,24.91
2022-09-05T17:35:17.320Z,24.68
2022-09-05T17:38:37.025Z,24.56
2022-09-05T17:41:43.330Z,24.41
2022-09-05T17:44:20.604Z,24.33
2022-09-05T17:47:05.686Z,24.18
2022-09-05T17:49:45.370Z,24.06
2022-09-05T17:52:17.544Z,24.17
2022-09-05T17:54:49.726Z,24.16
2022-09-05T17:57:26.749Z,24.15
2022-09-05T17:59:55.326Z,24.06
2022-09-05T18:02:22.344Z,24.08
2022-09-05T18:04:51.718Z,24.05
2022-09-05T18:07:31.274Z,24.10
2022-09-05T18:10:12.292Z,24.09
2022-09-05T18:13:13.122Z,24.03
2022-09-05T18:15:32.741Z,24.01
2022-09-05T18:18:05.521Z,24.06
2022-09-05T18:20:44.972Z,24.01
2022-09-05T18:23:39.735Z,23.99
2022-09-05T18:26:19.184Z,23.93
2022-09-05T18:32:04.640Z,23.83
2022-09-05T18:34:32.284Z,23.86
2022-09-05T18:36:59.305Z,23.90
2022-09-05T18:39:27.286Z,23.92
2022-09-05T18:42:33.258Z,23.64
2022-09-05T18:45:15.142Z,23.52
2022-09-05T18:47:58.859Z,23.42
2022-09-05T18:50:32.384Z,23.35
2022-09-05T18:53:09.654Z,23.36
2022-09-05T18:56:19.971Z,23.29
2022-09-05T18:59:10.150Z,23.20
2022-09-05T19:01:41.011Z,23.17
2022-09-05T19:04:39.303Z,22.98
2022-09-05T19:07:27.370Z,22.96
2022-09-05T19:10:02.102Z,22.92
2022-09-05T19:12:53.493Z,22.86
2022-09-05T19:15:25.013Z,22.82
2022-09-05T19:18:25.777Z,22.68
2022-09-05T19:20:56.667Z,22.83
2022-09-05T19:23:27.523Z,22.84
2022-09-05T19:25:59.223Z,22.79
2022-09-05T19:36:44.575Z,22.68
2022-09-05T19:36:51.931Z,22.63
2022-09-05T19:37:04.607Z,22.55
2022-09-05T19:37:29.301Z,22.51
2022-09-05T19:44:11.090Z,22.42
2022-09-05T19:47:41.507Z,22.31
2022-09-05T19:47:52.051Z,22.35
2022-09-05T19:48:29.514Z,22.28
2022-09-05T19:51:16.346Z,22.39
2022-09-05T19:54:01.328Z,22.37
2022-09-05T19:56:45.111Z,22.43
2022-09-05T19:59:38.383Z,22.42
2022-09-05T20:02:15.474Z,22.31
2022-09-05T20:04:53.330Z,22.27
2022-09-05T20:07:48.354Z,22.19
2022-09-05T20:10:28.612Z,22.09
2022-09-05T20:12:56.176Z,22.03
2022-09-05T20:15:35.901Z,21.84
2022-09-05T20:18:42.312Z,21.77
2022-09-05T20:21:17.468Z,21.71
2022-09-05T20:23:51.583Z,21.69
2022-09-05T20:26:22.709Z,21.58
2022-09-05T20:28:54.704Z,21.76
2022-09-05T20:31:27.248Z,21.80
2022-09-05T20:33:57.950Z,21.86
2022-09-05T20:43:09.054Z,21.76
2022-09-05T20:43:19.663Z,22.12
2022-09-05T20:43:22.838Z,21.75
2022-09-05T20:45:03.527Z,21.49
2022-09-05T20:54:06.894Z,21.36
2022-09-05T20:54:21.960Z,21.23
2022-09-05T20:54:31.793Z,21.14
2022-09-05T20:56:32.562Z,21.28
2022-09-05T20:59:01.179Z,21.48
2022-09-05T21:01:32.821Z,21.62
2022-09-05T21:04:05.609Z,21.67
2022-09-05T21:06:37.553Z,21.57
2022-09-05T21:09:34.090Z,21.67
2022-09-05T21:12:12.631Z,21.69
2022-09-05T21:15:00.231Z,21.58
2022-09-05T21:17:27.431Z,21.57
2022-09-05T21:19:58.665Z,21.44
2022-09-05T21:22:40.641Z,21.48
2022-09-05T21:25:16.405Z,21.48
2022-09-05T21:28:21.747Z,21.56
2022-09-05T21:30:49.041Z,21.65
2022-09-05T21:33:25.465Z,21.58
2022-09-05T21:36:12.624Z,21.58
2022-09-05T21:38:41.852Z,21.57
2022-09-05T21:41:10.700Z,21.59
2022-09-05T21:47:36.053Z,21.63
2022-09-05T21:47:49.426Z,21.73
2022-09-05T21:49:19.129Z,21.78
2022-09-05T21:51:50.570Z,21.84
2022-09-05T21:59:16.494Z,21.84
2022-09-05T21:59:32.964Z,21.71
2022-09-05T22:00:11.277Z,21.75
2022-09-05T22:02:49.655Z,21.78
2022-09-05T22:05:17.489Z,21.70
2022-09-05T22:07:44.563Z,21.57
2022-09-05T22:10:12.019Z,21.51
2022-09-05T22:12:39.457Z,21.47
2022-09-05T22:15:27.586Z,21.48
2022-09-05T22:17:58.325Z,21.51
2022-09-05T22:20:46.341Z,21.52
2022-09-05T22:23:19.233Z,21.48
2022-09-05T22:25:46.248Z,21.44
2022-09-05T22:28:20.917Z,21.56
2022-09-05T22:30:55.640Z,21.57
2022-09-05T22:33:25.164Z,21.62
2022-09-05T22:35:52.062Z,21.62
2022-09-05T22:38:20.108Z,21.56
2022-09-05T22:40:48.085Z,21.49
2022-09-05T22:43:16.952Z,21.53
2022-09-05T22:45:44.056Z,21.58
2022-09-05T22:48:15.067Z,21.54
2022-09-05T22:50:43.208Z,21.70
2022-09-05T22:53:10.752Z,21.76
2022-09-05T22:55:44.184Z,21.62
2022-09-05T22:58:14.993Z,21.67
2022-09-05T23:00:46.144Z,21.77
2022-09-05T23:03:13.278Z,21.84
2022-09-05T23:05:40.278Z,21.76
2022-09-05T23:08:07.974Z,21.71
2022-09-05T23:10:36.354Z,21.63
2022-09-05T23:13:09.084Z,21.72
2022-09-05T23:15:37.299Z,21.76
2022-09-05T23:18:05.500Z,21.76
2022-09-05T23:20:33.251Z,21.78
2022-09-05T23:23:04.513Z,21.84
2022-09-05T23:25:32.719Z,21.85
2022-09-05T23:27:59.930Z,21.82
2022-09-05T23:30:27.011Z,21.79
2022-09-05T23:32:54.072Z,21.89
2022-09-05T23:35:21.308Z,21.83
2022-09-05T23:37:49.074Z,21.78
2022-09-05T23:40:18.348Z,21.77
2022-09-05T23:42:56.319Z,21.68
2022-09-05T23:45:24.726Z,21.72
2022-09-05T23:47:52.269Z,21.68
2022-09-05T23:50:20.091Z,21.60
2022-09-05T23:52:47.790Z,21.57
2022-09-05T23:55:18.314Z,21.59
2022-09-05T23:57:45.628Z,21.54
